sensor_id;sensor_type;location;lat;lon;timestamp;temperature;humidity
11043;DHT22;5574;48.786;10.120;2023-02-28T00:01:39;-0.40;97.10
11043;DHT22;5574;48.786;10.120;2023-02-28T00:04:06;-0.40;97.10
11043;DHT22;5574;48.786;10.120;2023-02-28T00:06:34;-0.50;97.10
11043;DHT22;5574;48.786;10.120;2023-02-28T00:09:01;-0.50;97.20
11043;DHT22;5574;48.786;10.120;2023-02-28T00:11:29;-0.50;97.60
11043;DHT22;5574;48.786;10.120;2023-02-28T00:13:56;-0.50;97.70
11043;DHT22;5574;48.786;10.120;2023-02-28T00:16:22;-0.50;97.50
11043;DHT22;5574;48.786;10.120;2023-02-28T00:18:50;-0.50;97.50
11043;DHT22;5574;48.786;10.120;2023-02-28T00:21:17;-0.50;98.00
11043;DHT22;5574;48.786;10.120;2023-02-28T00:23:45;-0.60;97.90
11043;DHT22;5574;48.786;10.120;2023-02-28T00:26:12;-0.50;98.10
11043;DHT22;5574;48.786;10.120;2023-02-28T00:28:39;-0.50;97.80
11043;DHT22;5574;48.786;10.120;2023-02-28T00:31:06;-0.60;97.70
11043;DHT22;5574;48.786;10.120;2023-02-28T00:33:33;-0.60;98.10
11043;DHT22;5574;48.786;10.120;2023-02-28T00:36:04;-0.60;98.20
11043;DHT22;5574;48.786;10.120;2023-02-28T00:38:31;-0.60;98.10
11043;DHT22;5574;48.786;10.120;2023-02-28T00:40:58;-0.60;98.00
11043;DHT22;5574;48.786;10.120;2023-02-28T00:43:30;-0.60;98.10
11043;DHT22;5574;48.786;10.120;2023-02-28T00:45:58;-0.60;98.20
11043;DHT22;5574;48.786;10.120;2023-02-28T00:48:25;-0.60;98.00
11043;DHT22;5574;48.786;10.120;2023-02-28T00:50:52;-0.60;98.10
11043;DHT22;5574;48.786;10.120;2023-02-28T00:53:19;-0.60;98.00
11043;DHT22;5574;48.786;10.120;2023-02-28T00:55:46;-0.60;98.20
11043;DHT22;5574;48.786;10.120;2023-02-28T00:58:12;-0.60;98.50
11043;DHT22;5574;48.786;10.120;2023-02-28T01:00:39;-0.60;98.50
11043;DHT22;5574;48.786;10.120;2023-02-28T01:03:07;-0.60;98.50
11043;DHT22;5574;48.786;10.120;2023-02-28T01:05:34;-0.60;98.60
11043;DHT22;5574;48.786;10.120;2023-02-28T01:08:01;-0.60;99.00
11043;DHT22;5574;48.786;10.120;2023-02-28T01:10:28;-0.70;98.50
11043;DHT22;5574;48.786;10.120;2023-02-28T01:12:56;-0.70;98.70
11043;DHT22;5574;48.786;10.120;2023-02-28T01:15:23;-0.70;98.80
11043;DHT22;5574;48.786;10.120;2023-02-28T01:17:50;-0.70;98.90
11043;DHT22;5574;48.786;10.120;2023-02-28T01:20:18;-0.70;98.80
11043;DHT22;5574;48.786;10.120;2023-02-28T01:22:45;-0.80;99.00
11043;DHT22;5574;48.786;10.120;2023-02-28T01:25:12;-0.70;99.30
11043;DHT22;5574;48.786;10.120;2023-02-28T01:27:38;-0.80;99.00
11043;DHT22;5574;48.786;10.120;2023-02-28T01:30:07;-0.70;99.30
11043;DHT22;5574;48.786;10.120;2023-02-28T01:32:34;-0.70;99.10
11043;DHT22;5574;48.786;10.120;2023-02-28T01:35:00;-0.70;99.10
11043;DHT22;5574;48.786;10.120;2023-02-28T01:37:29;-0.70;99.20
11043;DHT22;5574;48.786;10.120;2023-02-28T01:39:55;-0.70;99.30
11043;DHT22;5574;48.786;10.120;2023-02-28T01:42:22;-0.70;99.20
11043;DHT22;5574;48.786;10.120;2023-02-28T01:45:01;-0.80;99.10
11043;DHT22;5574;48.786;10.120;2023-02-28T01:47:31;-0.70;99.40
11043;DHT22;5574;48.786;10.120;2023-02-28T01:50:00;-0.60;99.70
11043;DHT22;5574;48.786;10.120;2023-02-28T01:52:30;-0.60;99.70
11043;DHT22;5574;48.786;10.120;2023-02-28T01:54:59;-0.60;99.50
11043;DHT22;5574;48.786;10.120;2023-02-28T01:57:29;-0.60;99.50
11043;DHT22;5574;48.786;10.120;2023-02-28T02:00:06;-0.70;99.40
11043;DHT22;5574;48.786;10.120;2023-02-28T02:02:34;-0.60;99.50
11043;DHT22;5574;48.786;10.120;2023-02-28T02:05:04;-0.60;99.70
11043;DHT22;5574;48.786;10.120;2023-02-28T02:07:35;-0.50;99.70
11043;DHT22;5574;48.786;10.120;2023-02-28T02:10:07;-0.50;99.70
11043;DHT22;5574;48.786;10.120;2023-02-28T02:12:51;-0.50;99.70
11043;DHT22;5574;48.786;10.120;2023-02-28T02:15:24;-0.50;99.50
11043;DHT22;5574;48.786;10.120;2023-02-28T02:17:56;-0.50;99.60
11043;DHT22;5574;48.786;10.120;2023-02-28T02:21:13;-0.50;99.80
11043;DHT22;5574;48.786;10.120;2023-02-28T02:23:56;-0.50;99.80
11043;DHT22;5574;48.786;10.120;2023-02-28T02:26:55;-0.60;99.70
11043;DHT22;5574;48.786;10.120;2023-02-28T02:29:48;-0.60;99.90
11043;DHT22;5574;48.786;10.120;2023-02-28T02:32:45;-0.60;99.90
11043;DHT22;5574;48.786;10.120;2023-02-28T02:35:17;-0.60;99.90
11043;DHT22;5574;48.786;10.120;2023-02-28T02:37:51;-0.60;99.90
11043;DHT22;5574;48.786;10.120;2023-02-28T02:40:21;-0.50;99.90
11043;DHT22;5574;48.786;10.120;2023-02-28T02:42:51;-0.50;99.90
11043;DHT22;5574;48.786;10.120;2023-02-28T02:45:24;-0.60;99.90
11043;DHT22;5574;48.786;10.120;2023-02-28T02:47:53;-0.60;99.90
11043;DHT22;5574;48.786;10.120;2023-02-28T02:50:25;-0.60;99.90
11043;DHT22;5574;48.786;10.120;2023-02-28T02:52:59;-0.70;99.90
11043;DHT22;5574;48.786;10.120;2023-02-28T02:55:27;-0.60;99.90
11043;DHT22;5574;48.786;10.120;2023-02-28T02:57:57;-0.70;99.90
11043;DHT22;5574;48.786;10.120;2023-02-28T03:00:28;-0.60;99.90
11043;DHT22;5574;48.786;10.120;2023-02-28T03:02:57;-0.70;99.90
11043;DHT22;5574;48.786;10.120;2023-02-28T03:05:26;-0.60;99.90
11043;DHT22;5574;48.786;10.120;2023-02-28T03:07:54;-0.70;99.90
11043;DHT22;5574;48.786;10.120;2023-02-28T03:10:34;-0.80;99.90
11043;DHT22;5574;48.786;10.120;2023-02-28T03:13:14;-0.70;99.90
11043;DHT22;5574;48.786;10.120;2023-02-28T03:15:54;-0.70;99.90
11043;DHT22;5574;48.786;10.120;2023-02-28T03:18:29;-0.70;99.90
11043;DHT22;5574;48.786;10.120;2023-02-28T03:21:06;-0.70;99.90
11043;DHT22;5574;48.786;10.120;2023-02-28T03:23:38;-0.70;99.90
11043;DHT22;5574;48.786;10.120;2023-02-28T03:26:13;-0.70;99.90
11043;DHT22;5574;48.786;10.120;2023-02-28T03:28:49;-0.70;99.90
11043;DHT22;5574;48.786;10.120;2023-02-28T03:31:21;-0.80;99.90
11043;DHT22;5574;48.786;10.120;2023-02-28T03:33:54;-0.80;99.90
11043;DHT22;5574;48.786;10.120;2023-02-28T03:36:25;-0.80;99.90
11043;DHT22;5574;48.786;10.120;2023-02-28T03:38:57;-0.80;99.90
11043;DHT22;5574;48.786;10.120;2023-02-28T03:41:31;-0.70;99.90
11043;DHT22;5574;48.786;10.120;2023-02-28T03:44:02;-0.70;99.90
11043;DHT22;5574;48.786;10.120;2023-02-28T03:46:33;-0.80;99.90
11043;DHT22;5574;48.786;10.120;2023-02-28T03:49:07;-0.90;99.90
11043;DHT22;5574;48.786;10.120;2023-02-28T03:51:40;-0.90;99.90
11043;DHT22;5574;48.786;10.120;2023-02-28T03:54:11;-0.90;99.90
11043;DHT22;5574;48.786;10.120;2023-02-28T03:56:40;-0.90;99.90
11043;DHT22;5574;48.786;10.120;2023-02-28T03:59:13;-0.90;99.90
11043;DHT22;5574;48.786;10.120;2023-02-28T04:01:43;-0.90;99.90
11043;DHT22;5574;48.786;10.120;2023-02-28T04:04:11;-0.90;99.90
11043;DHT22;5574;48.786;10.120;2023-02-28T04:06:41;-0.90;99.90
11043;DHT22;5574;48.786;10.120;2023-02-28T04:09:09;-0.80;99.90
11043;DHT22;5574;48.786;10.120;2023-02-28T04:11:38;-0.80;99.90
11043;DHT22;5574;48.786;10.120;2023-02-28T04:14:06;-0.80;99.90
11043;DHT22;5574;48.786;10.120;2023-02-28T04:16:34;-0.90;99.90
11043;DHT22;5574;48.786;10.120;2023-02-28T04:19:01;-0.90;99.90
11043;DHT22;5574;48.786;10.120;2023-02-28T04:21:28;-0.90;99.90
11043;DHT22;5574;48.786;10.120;2023-02-28T04:23:57;-0.90;99.90
11043;DHT22;5574;48.786;10.120;2023-02-28T04:26:27;-0.90;99.90
11043;DHT22;5574;48.786;10.120;2023-02-28T04:28:55;-0.90;99.90
11043;DHT22;5574;48.786;10.120;2023-02-28T04:31:21;-1.00;99.90
11043;DHT22;5574;48.786;10.120;2023-02-28T04:33:48;-0.90;99.90
11043;DHT22;5574;48.786;10.120;2023-02-28T04:36:15;-1.00;99.90
11043;DHT22;5574;48.786;10.120;2023-02-28T04:38:43;-1.00;99.90
11043;DHT22;5574;48.786;10.120;2023-02-28T04:41:12;-0.90;99.90
11043;DHT22;5574;48.786;10.120;2023-02-28T04:43:39;-0.90;99.90
11043;DHT22;5574;48.786;10.120;2023-02-28T04:46:06;-0.90;99.90
11043;DHT22;5574;48.786;10.120;2023-02-28T04:48:36;-1.00;99.90
11043;DHT22;5574;48.786;10.120;2023-02-28T04:51:05;-1.00;99.90
11043;DHT22;5574;48.786;10.120;2023-02-28T04:53:32;-0.90;99.90
11043;DHT22;5574;48.786;10.120;2023-02-28T04:55:59;-1.00;99.90
11043;DHT22;5574;48.786;10.120;2023-02-28T04:58:27;-1.00;99.90
11043;DHT22;5574;48.786;10.120;2023-02-28T05:01:01;-1.00;99.90
11043;DHT22;5574;48.786;10.120;2023-02-28T05:03:28;-1.00;99.90
11043;DHT22;5574;48.786;10.120;2023-02-28T05:05:55;-1.00;99.90
11043;DHT22;5574;48.786;10.120;2023-02-28T05:08:21;-1.00;99.90
11043;DHT22;5574;48.786;10.120;2023-02-28T05:10:48;-1.00;99.90
11043;DHT22;5574;48.786;10.120;2023-02-28T05:13:14;-1.10;99.90
11043;DHT22;5574;48.786;10.120;2023-02-28T05:15:42;-1.00;99.90
11043;DHT22;5574;48.786;10.120;2023-02-28T05:18:09;-1.00;99.90
11043;DHT22;5574;48.786;10.120;2023-02-28T05:20:36;-1.00;99.90
11043;DHT22;5574;48.786;10.120;2023-02-28T05:23:03;-1.00;99.90
11043;DHT22;5574;48.786;10.120;2023-02-28T05:25:29;-1.00;99.90
11043;DHT22;5574;48.786;10.120;2023-02-28T05:27:56;-1.10;99.90
11043;DHT22;5574;48.786;10.120;2023-02-28T05:30:23;-1.00;99.90
11043;DHT22;5574;48.786;10.120;2023-02-28T05:32:51;-1.00;99.90
11043;DHT22;5574;48.786;10.120;2023-02-28T05:35:18;-1.10;99.90
11043;DHT22;5574;48.786;10.120;2023-02-28T05:37:44;-1.10;99.90
11043;DHT22;5574;48.786;10.120;2023-02-28T05:40:12;-1.20;99.90
11043;DHT22;5574;48.786;10.120;2023-02-28T05:42:39;-1.30;99.90
11043;DHT22;5574;48.786;10.120;2023-02-28T05:45:06;-1.20;99.90
11043;DHT22;5574;48.786;10.120;2023-02-28T05:47:34;-1.20;99.90
11043;DHT22;5574;48.786;10.120;2023-02-28T05:50:04;-1.10;99.90
11043;DHT22;5574;48.786;10.120;2023-02-28T05:52:31;-1.20;99.90
11043;DHT22;5574;48.786;10.120;2023-02-28T05:54:58;-1.20;99.90
11043;DHT22;5574;48.786;10.120;2023-02-28T05:57:24;-1.10;99.90
11043;DHT22;5574;48.786;10.120;2023-02-28T05:59:51;-1.10;99.90
11043;DHT22;5574;48.786;10.120;2023-02-28T06:02:18;-1.10;99.90
11043;DHT22;5574;48.786;10.120;2023-02-28T06:04:45;-1.10;99.90
11043;DHT22;5574;48.786;10.120;2023-02-28T06:07:13;-1.10;99.90
11043;DHT22;5574;48.786;10.120;2023-02-28T06:09:40;-1.10;99.90
11043;DHT22;5574;48.786;10.120;2023-02-28T06:12:07;-1.00;99.90
11043;DHT22;5574;48.786;10.120;2023-02-28T06:14:35;-1.10;99.90
11043;DHT22;5574;48.786;10.120;2023-02-28T06:17:02;-1.10;99.90
11043;DHT22;5574;48.786;10.120;2023-02-28T06:19:29;-1.00;99.90
11043;DHT22;5574;48.786;10.120;2023-02-28T06:21:56;-1.10;99.90
11043;DHT22;5574;48.786;10.120;2023-02-28T06:24:26;-1.10;99.90
11043;DHT22;5574;48.786;10.120;2023-02-28T06:26:54;-1.10;99.90
11043;DHT22;5574;48.786;10.120;2023-02-28T06:29:21;-1.10;99.90
11043;DHT22;5574;48.786;10.120;2023-02-28T06:31:48;-1.10;99.90
11043;DHT22;5574;48.786;10.120;2023-02-28T06:34:14;-1.10;99.90
11043;DHT22;5574;48.786;10.120;2023-02-28T06:36:41;-1.20;99.90
11043;DHT22;5574;48.786;10.120;2023-02-28T06:39:09;-1.10;99.90
11043;DHT22;5574;48.786;10.120;2023-02-28T06:41:37;-1.10;99.90
11043;DHT22;5574;48.786;10.120;2023-02-28T06:44:05;-1.10;99.90
11043;DHT22;5574;48.786;10.120;2023-02-28T06:46:32;-1.10;99.90
11043;DHT22;5574;48.786;10.120;2023-02-28T06:48:59;-1.20;99.90
11043;DHT22;5574;48.786;10.120;2023-02-28T06:51:25;-1.10;99.90
11043;DHT22;5574;48.786;10.120;2023-02-28T06:53:52;-1.10;99.90
11043;DHT22;5574;48.786;10.120;2023-02-28T06:56:19;-1.10;99.90
11043;DHT22;5574;48.786;10.120;2023-02-28T06:58:49;-1.10;99.90
11043;DHT22;5574;48.786;10.120;2023-02-28T07:01:19;-1.10;99.90
11043;DHT22;5574;48.786;10.120;2023-02-28T07:03:46;-1.20;99.90
11043;DHT22;5574;48.786;10.120;2023-02-28T07:06:17;-1.20;99.90
11043;DHT22;5574;48.786;10.120;2023-02-28T07:08:44;-1.20;99.90
11043;DHT22;5574;48.786;10.120;2023-02-28T07:11:11;-1.20;99.90
11043;DHT22;5574;48.786;10.120;2023-02-28T07:13:38;-1.10;99.90
11043;DHT22;5574;48.786;10.120;2023-02-28T07:16:10;-1.20;99.90
11043;DHT22;5574;48.786;10.120;2023-02-28T07:18:37;-1.20;99.90
11043;DHT22;5574;48.786;10.120;2023-02-28T07:21:06;-1.20;99.90
11043;DHT22;5574;48.786;10.120;2023-02-28T07:23:33;-1.20;99.90
11043;DHT22;5574;48.786;10.120;2023-02-28T07:26:00;-1.20;99.90
11043;DHT22;5574;48.786;10.120;2023-02-28T07:28:27;-1.10;99.90
11043;DHT22;5574;48.786;10.120;2023-02-28T07:30:54;-1.00;99.90
11043;DHT22;5574;48.786;10.120;2023-02-28T07:33:22;-1.00;99.90
11043;DHT22;5574;48.786;10.120;2023-02-28T07:35:50;-1.00;99.90
11043;DHT22;5574;48.786;10.120;2023-02-28T07:38:16;-1.00;99.90
11043;DHT22;5574;48.786;10.120;2023-02-28T07:40:43;-1.00;99.90
11043;DHT22;5574;48.786;10.120;2023-02-28T07:43:10;-0.90;99.90
11043;DHT22;5574;48.786;10.120;2023-02-28T07:45:36;-0.90;99.90
11043;DHT22;5574;48.786;10.120;2023-02-28T07:48:04;-0.80;99.90
11043;DHT22;5574;48.786;10.120;2023-02-28T07:50:32;-0.80;99.90
11043;DHT22;5574;48.786;10.120;2023-02-28T07:52:59;-0.60;99.90
11043;DHT22;5574;48.786;10.120;2023-02-28T07:55:26;-0.60;99.90
11043;DHT22;5574;48.786;10.120;2023-02-28T07:57:53;-0.60;99.90
11043;DHT22;5574;48.786;10.120;2023-02-28T08:00:20;-0.50;99.90
11043;DHT22;5574;48.786;10.120;2023-02-28T08:02:47;-0.40;99.90
11043;DHT22;5574;48.786;10.120;2023-02-28T08:05:14;-0.40;99.90
11043;DHT22;5574;48.786;10.120;2023-02-28T08:07:42;-0.30;99.90
11043;DHT22;5574;48.786;10.120;2023-02-28T08:10:10;-0.20;99.90
11043;DHT22;5574;48.786;10.120;2023-02-28T08:12:36;-0.10;99.90
11043;DHT22;5574;48.786;10.120;2023-02-28T08:15:03;0.00;99.90
11043;DHT22;5574;48.786;10.120;2023-02-28T08:17:30;0.10;99.90
11043;DHT22;5574;48.786;10.120;2023-02-28T08:19:57;0.10;99.90
11043;DHT22;5574;48.786;10.120;2023-02-28T08:22:24;0.20;99.90
11043;DHT22;5574;48.786;10.120;2023-02-28T08:24:52;0.30;99.90
11043;DHT22;5574;48.786;10.120;2023-02-28T08:27:18;0.40;99.90
11043;DHT22;5574;48.786;10.120;2023-02-28T08:29:45;0.30;99.90
11043;DHT22;5574;48.786;10.120;2023-02-28T08:32:12;0.50;99.90
11043;DHT22;5574;48.786;10.120;2023-02-28T08:34:39;0.60;99.90
11043;DHT22;5574;48.786;10.120;2023-02-28T08:37:06;0.70;99.90
11043;DHT22;5574;48.786;10.120;2023-02-28T08:39:34;0.80;99.60
11043;DHT22;5574;48.786;10.120;2023-02-28T08:42:02;0.90;99.90
11043;DHT22;5574;48.786;10.120;2023-02-28T08:44:29;1.00;99.40
11043;DHT22;5574;48.786;10.120;2023-02-28T08:46:56;1.20;99.50
11043;DHT22;5574;48.786;10.120;2023-02-28T08:49:23;1.20;99.20
11043;DHT22;5574;48.786;10.120;2023-02-28T08:51:49;1.30;99.10
11043;DHT22;5574;48.786;10.120;2023-02-28T08:54:16;1.40;98.70
11043;DHT22;5574;48.786;10.120;2023-02-28T08:56:44;1.50;98.70
11043;DHT22;5574;48.786;10.120;2023-02-28T08:59:13;1.30;98.60
11043;DHT22;5574;48.786;10.120;2023-02-28T09:01:40;1.30;98.30
11043;DHT22;5574;48.786;10.120;2023-02-28T09:04:09;1.30;98.50
11043;DHT22;5574;48.786;10.120;2023-02-28T09:06:37;1.40;98.70
11043;DHT22;5574;48.786;10.120;2023-02-28T09:09:04;1.50;98.50
11043;DHT22;5574;48.786;10.120;2023-02-28T09:11:33;1.50;98.30
11043;DHT22;5574;48.786;10.120;2023-02-28T09:14:00;1.60;98.10
11043;DHT22;5574;48.786;10.120;2023-02-28T09:16:31;1.60;97.80
11043;DHT22;5574;48.786;10.120;2023-02-28T09:18:58;1.50;98.00
11043;DHT22;5574;48.786;10.120;2023-02-28T09:21:25;1.50;97.90
11043;DHT22;5574;48.786;10.120;2023-02-28T09:23:52;1.50;97.70
11043;DHT22;5574;48.786;10.120;2023-02-28T09:26:21;1.40;98.00
11043;DHT22;5574;48.786;10.120;2023-02-28T09:28:48;1.40;97.90
11043;DHT22;5574;48.786;10.120;2023-02-28T09:31:18;1.20;98.20
11043;DHT22;5574;48.786;10.120;2023-02-28T09:33:48;1.10;97.80
11043;DHT22;5574;48.786;10.120;2023-02-28T09:36:15;1.00;98.50
11043;DHT22;5574;48.786;10.120;2023-02-28T09:38:42;1.00;98.30
11043;DHT22;5574;48.786;10.120;2023-02-28T09:41:13;1.00;98.70
11043;DHT22;5574;48.786;10.120;2023-02-28T09:43:43;1.00;98.70
11043;DHT22;5574;48.786;10.120;2023-02-28T09:46:18;0.90;98.30
11043;DHT22;5574;48.786;10.120;2023-02-28T09:48:49;1.00;98.80
11043;DHT22;5574;48.786;10.120;2023-02-28T09:51:28;1.00;98.80
11043;DHT22;5574;48.786;10.120;2023-02-28T09:53:56;1.00;99.00
11043;DHT22;5574;48.786;10.120;2023-02-28T09:56:26;1.10;98.80
11043;DHT22;5574;48.786;10.120;2023-02-28T09:58:56;1.30;99.20
11043;DHT22;5574;48.786;10.120;2023-02-28T10:01:29;1.20;98.70
11043;DHT22;5574;48.786;10.120;2023-02-28T10:04:01;1.40;98.80
11043;DHT22;5574;48.786;10.120;2023-02-28T10:06:35;1.50;98.80
11043;DHT22;5574;48.786;10.120;2023-02-28T10:09:07;1.60;98.50
11043;DHT22;5574;48.786;10.120;2023-02-28T10:11:39;1.70;98.10
11043;DHT22;5574;48.786;10.120;2023-02-28T10:14:13;1.80;98.60
11043;DHT22;5574;48.786;10.120;2023-02-28T10:16:43;1.90;99.00
11043;DHT22;5574;48.786;10.120;2023-02-28T10:19:16;1.90;98.20
11043;DHT22;5574;48.786;10.120;2023-02-28T10:21:47;1.90;97.80
11043;DHT22;5574;48.786;10.120;2023-02-28T10:24:22;2.00;97.20
11043;DHT22;5574;48.786;10.120;2023-02-28T10:26:51;2.40;97.30
11043;DHT22;5574;48.786;10.120;2023-02-28T10:29:19;2.90;96.70
11043;DHT22;5574;48.786;10.120;2023-02-28T10:31:45;3.40;96.60
11043;DHT22;5574;48.786;10.120;2023-02-28T10:34:13;3.80;95.90
11043;DHT22;5574;48.786;10.120;2023-02-28T10:36:41;4.00;95.30
11043;DHT22;5574;48.786;10.120;2023-02-28T10:39:38;4.10;94.50
11043;DHT22;5574;48.786;10.120;2023-02-28T10:42:19;4.00;94.10
11043;DHT22;5574;48.786;10.120;2023-02-28T10:44:46;4.00;93.90
11043;DHT22;5574;48.786;10.120;2023-02-28T10:47:15;4.10;93.70
11043;DHT22;5574;48.786;10.120;2023-02-28T10:49:48;4.20;93.20
11043;DHT22;5574;48.786;10.120;2023-02-28T10:52:33;4.10;92.80
11043;DHT22;5574;48.786;10.120;2023-02-28T10:55:15;4.00;92.80
11043;DHT22;5574;48.786;10.120;2023-02-28T10:57:42;4.00;93.20
11043;DHT22;5574;48.786;10.120;2023-02-28T11:00:14;4.00;93.00
11043;DHT22;5574;48.786;10.120;2023-02-28T11:02:42;3.90;93.00
11043;DHT22;5574;48.786;10.120;2023-02-28T11:05:25;4.10;93.00
11043;DHT22;5574;48.786;10.120;2023-02-28T11:07:53;4.30;92.50
11043;DHT22;5574;48.786;10.120;2023-02-28T11:10:21;4.50;93.50
11043;DHT22;5574;48.786;10.120;2023-02-28T11:12:55;4.80;92.60
11043;DHT22;5574;48.786;10.120;2023-02-28T11:15:24;5.10;92.60
11043;DHT22;5574;48.786;10.120;2023-02-28T11:17:55;5.10;92.80
11043;DHT22;5574;48.786;10.120;2023-02-28T11:20:27;5.10;91.70
11043;DHT22;5574;48.786;10.120;2023-02-28T11:22:56;5.20;91.60
11043;DHT22;5574;48.786;10.120;2023-02-28T11:25:26;5.30;91.60
11043;DHT22;5574;48.786;10.120;2023-02-28T11:27:55;5.60;91.30
11043;DHT22;5574;48.786;10.120;2023-02-28T11:30:25;5.80;91.20
11043;DHT22;5574;48.786;10.120;2023-02-28T11:32:52;5.70;91.40
11043;DHT22;5574;48.786;10.120;2023-02-28T11:35:26;5.80;90.80
11043;DHT22;5574;48.786;10.120;2023-02-28T11:37:53;5.80;90.70
11043;DHT22;5574;48.786;10.120;2023-02-28T11:40:26;5.90;91.30
11043;DHT22;5574;48.786;10.120;2023-02-28T11:43:01;5.70;90.40
11043;DHT22;5574;48.786;10.120;2023-02-28T11:45:43;5.70;90.90
11043;DHT22;5574;48.786;10.120;2023-02-28T11:48:14;5.80;90.60
11043;DHT22;5574;48.786;10.120;2023-02-28T11:50:54;5.70;91.40
11043;DHT22;5574;48.786;10.120;2023-02-28T11:53:35;5.90;91.00
11043;DHT22;5574;48.786;10.120;2023-02-28T11:56:09;5.80;89.60
11043;DHT22;5574;48.786;10.120;2023-02-28T11:58:45;5.80;90.30
11043;DHT22;5574;48.786;10.120;2023-02-28T12:01:28;5.60;89.80
11043;DHT22;5574;48.786;10.120;2023-02-28T12:04:11;5.70;90.50
11043;DHT22;5574;48.786;10.120;2023-02-28T12:06:45;5.40;90.20
11043;DHT22;5574;48.786;10.120;2023-02-28T12:09:28;5.40;90.80
11043;DHT22;5574;48.786;10.120;2023-02-28T12:12:05;5.40;91.50
11043;DHT22;5574;48.786;10.120;2023-02-28T12:14:53;5.50;90.20
11043;DHT22;5574;48.786;10.120;2023-02-28T12:17:36;5.60;90.50
11043;DHT22;5574;48.786;10.120;2023-02-28T12:20:12;5.70;89.20
11043;DHT22;5574;48.786;10.120;2023-02-28T12:22:49;5.70;90.40
11043;DHT22;5574;48.786;10.120;2023-02-28T12:25:31;5.80;90.90
11043;DHT22;5574;48.786;10.120;2023-02-28T12:28:09;5.90;89.80
11043;DHT22;5574;48.786;10.120;2023-02-28T12:30:42;5.90;88.60
11043;DHT22;5574;48.786;10.120;2023-02-28T12:33:15;5.80;90.10
11043;DHT22;5574;48.786;10.120;2023-02-28T12:35:48;5.80;89.00
11043;DHT22;5574;48.786;10.120;2023-02-28T12:38:19;5.60;89.20
11043;DHT22;5574;48.786;10.120;2023-02-28T12:40:50;5.40;90.20
11043;DHT22;5574;48.786;10.120;2023-02-28T12:43:21;5.50;90.50
11043;DHT22;5574;48.786;10.120;2023-02-28T12:45:51;5.50;90.80
11043;DHT22;5574;48.786;10.120;2023-02-28T12:48:24;5.40;90.40
11043;DHT22;5574;48.786;10.120;2023-02-28T12:50:52;5.40;90.10
11043;DHT22;5574;48.786;10.120;2023-02-28T12:53:25;5.50;91.20
11043;DHT22;5574;48.786;10.120;2023-02-28T12:56:03;5.40;90.20
11043;DHT22;5574;48.786;10.120;2023-02-28T12:58:37;5.50;90.40
11043;DHT22;5574;48.786;10.120;2023-02-28T13:01:22;5.30;90.60
11043;DHT22;5574;48.786;10.120;2023-02-28T13:04:24;5.30;90.70
11043;DHT22;5574;48.786;10.120;2023-02-28T13:07:10;5.30;90.50
11043;DHT22;5574;48.786;10.120;2023-02-28T13:09:40;5.40;91.80
11043;DHT22;5574;48.786;10.120;2023-02-28T13:12:13;5.40;90.80
11043;DHT22;5574;48.786;10.120;2023-02-28T13:14:40;5.50;91.00
11043;DHT22;5574;48.786;10.120;2023-02-28T13:17:11;5.40;90.50
11043;DHT22;5574;48.786;10.120;2023-02-28T13:19:41;5.40;90.80
11043;DHT22;5574;48.786;10.120;2023-02-28T13:22:17;5.30;90.60
11043;DHT22;5574;48.786;10.120;2023-02-28T13:24:48;5.20;90.70
11043;DHT22;5574;48.786;10.120;2023-02-28T13:27:35;5.10;90.70
11043;DHT22;5574;48.786;10.120;2023-02-28T13:33:22;4.90;90.50
11043;DHT22;5574;48.786;10.120;2023-02-28T13:36:10;5.00;91.00
11043;DHT22;5574;48.786;10.120;2023-02-28T13:38:41;4.90;91.00
11043;DHT22;5574;48.786;10.120;2023-02-28T13:41:44;4.90;91.00
11043;DHT22;5574;48.786;10.120;2023-02-28T13:44:13;5.00;91.10
11043;DHT22;5574;48.786;10.120;2023-02-28T13:47:19;4.90;91.30
11043;DHT22;5574;48.786;10.120;2023-02-28T13:49:46;5.10;91.70
11043;DHT22;5574;48.786;10.120;2023-02-28T13:52:17;5.20;91.20
11043;DHT22;5574;48.786;10.120;2023-02-28T13:55:06;5.20;91.10
11043;DHT22;5574;48.786;10.120;2023-02-28T14:00:41;5.30;91.70
11043;DHT22;5574;48.786;10.120;2023-02-28T14:03:26;5.20;91.10
11043;DHT22;5574;48.786;10.120;2023-02-28T14:06:19;5.10;91.00
11043;DHT22;5574;48.786;10.120;2023-02-28T14:08:54;5.10;91.50
11043;DHT22;5574;48.786;10.120;2023-02-28T14:11:27;5.30;91.20
11043;DHT22;5574;48.786;10.120;2023-02-28T14:13:57;5.20;90.90
11043;DHT22;5574;48.786;10.120;2023-02-28T14:16:25;5.40;91.90
11043;DHT22;5574;48.786;10.120;2023-02-28T14:18:57;5.40;91.30
11043;DHT22;5574;48.786;10.120;2023-02-28T14:21:27;5.40;90.70
11043;DHT22;5574;48.786;10.120;2023-02-28T14:24:23;5.40;91.20
11043;DHT22;5574;48.786;10.120;2023-02-28T14:27:08;5.20;90.90
11043;DHT22;5574;48.786;10.120;2023-02-28T14:30:03;5.40;91.20
11043;DHT22;5574;48.786;10.120;2023-02-28T14:32:37;5.30;90.90
11043;DHT22;5574;48.786;10.120;2023-02-28T14:35:18;5.30;91.40
11043;DHT22;5574;48.786;10.120;2023-02-28T14:37:46;5.20;91.10
11043;DHT22;5574;48.786;10.120;2023-02-28T14:40:17;5.20;91.60
11043;DHT22;5574;48.786;10.120;2023-02-28T14:42:55;5.10;91.30
11043;DHT22;5574;48.786;10.120;2023-02-28T14:45:24;5.10;91.40
11043;DHT22;5574;48.786;10.120;2023-02-28T14:47:51;5.20;91.80
11043;DHT22;5574;48.786;10.120;2023-02-28T14:50:19;5.20;92.00
11043;DHT22;5574;48.786;10.120;2023-02-28T14:52:46;5.20;91.00
11043;DHT22;5574;48.786;10.120;2023-02-28T14:55:15;5.10;91.10
11043;DHT22;5574;48.786;10.120;2023-02-28T14:57:52;5.20;91.70
11043;DHT22;5574;48.786;10.120;2023-02-28T15:00:25;5.20;92.00
11043;DHT22;5574;48.786;10.120;2023-02-28T15:02:53;5.20;91.20
11043;DHT22;5574;48.786;10.120;2023-02-28T15:05:25;5.20;91.10
11043;DHT22;5574;48.786;10.120;2023-02-28T15:08:03;5.20;91.60
11043;DHT22;5574;48.786;10.120;2023-02-28T15:10:30;5.30;90.80
11043;DHT22;5574;48.786;10.120;2023-02-28T15:12:59;5.20;91.00
11043;DHT22;5574;48.786;10.120;2023-02-28T15:15:39;5.20;91.10
11043;DHT22;5574;48.786;10.120;2023-02-28T15:18:10;5.20;91.00
11043;DHT22;5574;48.786;10.120;2023-02-28T15:20:39;5.20;91.10
11043;DHT22;5574;48.786;10.120;2023-02-28T15:23:07;5.10;90.90
11043;DHT22;5574;48.786;10.120;2023-02-28T15:25:35;5.10;90.90
11043;DHT22;5574;48.786;10.120;2023-02-28T15:28:02;5.10;90.70
11043;DHT22;5574;48.786;10.120;2023-02-28T15:30:31;4.90;90.60
11043;DHT22;5574;48.786;10.120;2023-02-28T15:33:15;4.90;91.00
11043;DHT22;5574;48.786;10.120;2023-02-28T15:35:44;4.90;91.40
11043;DHT22;5574;48.786;10.120;2023-02-28T15:38:16;4.90;91.60
11043;DHT22;5574;48.786;10.120;2023-02-28T15:40:45;4.90;91.60
11043;DHT22;5574;48.786;10.120;2023-02-28T15:43:24;4.80;91.50
11043;DHT22;5574;48.786;10.120;2023-02-28T15:45:55;4.80;91.50
11043;DHT22;5574;48.786;10.120;2023-02-28T15:48:24;4.70;91.70
11043;DHT22;5574;48.786;10.120;2023-02-28T15:50:53;4.70;92.30
11043;DHT22;5574;48.786;10.120;2023-02-28T15:53:23;4.70;92.10
11043;DHT22;5574;48.786;10.120;2023-02-28T15:55:55;4.70;92.10
11043;DHT22;5574;48.786;10.120;2023-02-28T15:58:24;4.60;92.10
11043;DHT22;5574;48.786;10.120;2023-02-28T16:01:06;4.60;92.00
11043;DHT22;5574;48.786;10.120;2023-02-28T16:03:43;4.50;92.20
11043;DHT22;5574;48.786;10.120;2023-02-28T16:06:35;4.50;92.30
11043;DHT22;5574;48.786;10.120;2023-02-28T16:09:03;4.50;92.60